createdAt,value
2022-11-29T00:01:44.276Z,4.35
2022-11-29T00:04:13.322Z,4.35
2022-11-29T00:06:42.051Z,4.35
2022-11-29T00:09:15.013Z,4.97
2022-11-29T00:12:01.392Z,5.43
2022-11-29T00:14:30.789Z,4.82
2022-11-29T00:17:02.835Z,6.15
2022-11-29T00:19:32.523Z,4.45
2022-11-29T00:22:02.271Z,5.97
2022-11-29T00:24:33.107Z,5.78
2022-11-29T00:27:02.377Z,5.38
2022-11-29T00:29:31.973Z,5.78
2022-11-29T00:32:00.633Z,5.63
2022-11-29T00:34:29.522Z,5.32
2022-11-29T00:36:58.311Z,5.07
2022-11-29T00:39:27.200Z,5.75
2022-11-29T00:41:57.398Z,5.47
2022-11-29T00:44:26.003Z,6.15
2022-11-29T00:46:54.631Z,5.80
2022-11-29T00:49:23.348Z,5.85
2022-11-29T00:51:52.047Z,5.22
2022-11-29T00:54:21.721Z,4.65
2022-11-29T00:56:50.482Z,4.82
2022-11-29T00:59:20.520Z,3.55
2022-11-29T01:01:49.248Z,5.65
2022-11-29T01:04:18.090Z,5.45
2022-11-29T01:06:46.764Z,4.68
2022-11-29T01:09:15.596Z,4.35
2022-11-29T01:11:44.363Z,4.57
2022-11-29T01:14:14.565Z,5.18
2022-11-29T01:16:44.862Z,4.47
2022-11-29T01:19:13.587Z,5.60
2022-11-29T01:21:42.627Z,4.85
2022-11-29T01:24:11.456Z,5.50
2022-11-29T01:29:11.395Z,4.72
2022-11-29T01:31:40.136Z,5.07
2022-11-29T01:34:10.784Z,4.63
2022-11-29T01:36:39.435Z,5.22
2022-11-29T01:39:08.628Z,5.22
2022-11-29T01:41:38.522Z,4.68
2022-11-29T01:46:38.556Z,4.70
2022-11-29T01:49:12.909Z,5.00
2022-11-29T01:51:44.396Z,5.28
2022-11-29T01:54:15.257Z,5.25
2022-11-29T01:56:46.548Z,4.70
2022-11-29T01:59:19.478Z,4.75
2022-11-29T02:01:48.321Z,4.53
2022-11-29T02:04:19.546Z,4.18
2022-11-29T02:06:48.685Z,5.68
2022-11-29T02:09:20.883Z,6.65
2022-11-29T02:12:13.461Z,3.92
2022-11-29T02:14:55.156Z,3.97
2022-11-29T02:17:32.158Z,5.85
2022-11-29T02:20:36.457Z,5.00
2022-11-29T02:23:23.899Z,4.43
2022-11-29T02:26:04.712Z,5.22
2022-11-29T02:28:54.323Z,5.60
2022-11-29T02:31:53.729Z,5.32
2022-11-29T02:34:39.528Z,5.38
2022-11-29T02:37:35.476Z,6.18
2022-11-29T02:40:26.875Z,4.20
2022-11-29T02:43:22.599Z,5.55
2022-11-29T02:46:01.146Z,4.72
2022-11-29T02:48:52.097Z,2.78
2022-11-29T02:51:27.462Z,4.40
2022-11-29T02:54:03.406Z,4.47
2022-11-29T02:56:39.726Z,4.05
2022-11-29T02:59:14.321Z,5.10
2022-11-29T03:01:53.748Z,2.28
2022-11-29T03:04:33.046Z,4.60
2022-11-29T03:07:12.963Z,4.10
2022-11-29T03:09:45.506Z,2.42
2022-11-29T03:12:25.932Z,3.70
2022-11-29T03:15:04.002Z,4.00
2022-11-29T03:17:43.762Z,3.50
2022-11-29T03:20:30.528Z,3.63
2022-11-29T03:23:15.582Z,3.83
2022-11-29T03:25:47.753Z,3.45
2022-11-29T03:28:20.439Z,2.63
2022-11-29T03:31:01.856Z,3.95
2022-11-29T03:33:41.386Z,2.40
2022-11-29T03:36:16.762Z,3.95
2022-11-29T03:38:48.618Z,3.65
2022-11-29T03:41:24.863Z,3.70
2022-11-29T03:43:59.407Z,3.50
2022-11-29T03:46:39.129Z,3.83
2022-11-29T03:49:18.201Z,3.70
2022-11-29T03:51:57.785Z,3.65
2022-11-29T03:54:34.321Z,3.10
2022-11-29T03:57:03.985Z,3.47
2022-11-29T03:59:53.980Z,3.83
2022-11-29T04:02:54.433Z,2.88
2022-11-29T04:05:49.972Z,2.72
2022-11-29T04:08:46.298Z,3.60
2022-11-29T04:11:58.982Z,3.05
2022-11-29T04:15:03.316Z,3.33
2022-11-29T04:17:54.000Z,3.83
2022-11-29T04:20:57.392Z,3.58
2022-11-29T04:23:56.384Z,3.80
2022-11-29T04:27:09.865Z,3.75
2022-11-29T04:30:11.203Z,3.55
2022-11-29T04:33:10.332Z,3.40
2022-11-29T04:35:51.105Z,3.55
2022-11-29T04:38:48.539Z,2.40
2022-11-29T04:41:47.943Z,3.03
2022-11-29T04:44:34.231Z,2.85
2022-11-29T04:47:20.022Z,2.30
2022-11-29T04:50:06.901Z,2.42
2022-11-29T04:52:49.073Z,2.30
2022-11-29T04:55:31.088Z,2.88
2022-11-29T04:58:03.974Z,2.95
2022-11-29T05:00:40.587Z,3.28
2022-11-29T05:03:17.932Z,3.28
2022-11-29T05:05:54.259Z,2.92
2022-11-29T05:08:34.989Z,2.72
2022-11-29T05:11:13.626Z,3.10
2022-11-29T05:13:51.897Z,3.33
2022-11-29T05:16:33.540Z,3.10
2022-11-29T05:19:30.175Z,3.38
2022-11-29T05:22:08.519Z,3.40
2022-11-29T05:24:53.019Z,3.63
2022-11-29T05:27:28.852Z,3.35
2022-11-29T05:30:04.243Z,3.15
2022-11-29T05:32:37.541Z,3.67
2022-11-29T05:35:42.712Z,3.25
2022-11-29T05:38:25.479Z,3.28
2022-11-29T05:41:07.368Z,3.65
2022-11-29T05:43:51.327Z,4.68
2022-11-29T05:46:24.924Z,4.20
2022-11-29T05:49:04.518Z,4.40
2022-11-29T05:51:43.899Z,3.95
2022-11-29T05:54:25.882Z,2.92
2022-11-29T05:57:10.791Z,3.90
2022-11-29T05:59:42.376Z,4.07
2022-11-29T06:02:28.688Z,3.63
2022-11-29T06:05:07.735Z,3.83
2022-11-29T06:07:46.248Z,5.25
2022-11-29T06:10:17.995Z,4.28
2022-11-29T06:12:57.557Z,3.92
2022-11-29T06:16:15.160Z,4.07
2022-11-29T06:19:22.536Z,3.20
2022-11-29T06:22:01.697Z,5.55
2022-11-29T06:24:57.203Z,4.68
2022-11-29T06:27:44.245Z,4.40
2022-11-29T06:30:16.206Z,4.35
2022-11-29T06:32:52.236Z,4.82
2022-11-29T06:35:38.008Z,3.67
2022-11-29T06:38:15.757Z,5.55
2022-11-29T06:40:47.263Z,5.57
2022-11-29T06:43:17.435Z,6.57
2022-11-29T06:45:53.708Z,5.07
2022-11-29T06:48:29.349Z,4.28
2022-11-29T06:51:08.017Z,5.50
2022-11-29T06:53:44.942Z,5.68
2022-11-29T06:56:25.610Z,4.68
2022-11-29T06:59:04.818Z,5.15
2022-11-29T07:01:42.016Z,5.70
2022-11-29T07:17:57.202Z,3.80
2022-11-29T07:20:34.219Z,4.78
2022-11-29T07:23:12.087Z,4.22
2022-11-29T07:25:48.933Z,7.45
2022-11-29T07:28:30.055Z,7.35
2022-11-29T07:31:03.289Z,6.75
2022-11-29T07:33:42.393Z,4.78
2022-11-29T07:36:17.082Z,5.32
2022-11-29T07:39:00.756Z,5.40
2022-11-29T07:41:37.007Z,5.30
2022-11-29T07:44:14.455Z,4.82
2022-11-29T07:46:44.001Z,5.53
2022-11-29T07:49:14.447Z,6.95
2022-11-29T07:51:43.067Z,6.97
2022-11-29T07:54:14.972Z,6.55
2022-11-29T07:56:43.544Z,6.50
2022-11-29T07:59:13.106Z,6.72
2022-11-29T08:01:42.879Z,6.95
2022-11-29T08:04:11.616Z,6.50
2022-11-29T08:06:42.508Z,5.22
2022-11-29T08:09:11.179Z,6.28
2022-11-29T08:11:40.864Z,5.68
2022-11-29T08:14:09.456Z,5.55
2022-11-29T08:16:38.841Z,6.32
2022-11-29T08:19:08.844Z,6.75
2022-11-29T08:21:37.508Z,5.78
2022-11-29T08:24:08.188Z,5.40
2022-11-29T08:26:36.886Z,4.40
2022-11-29T08:29:05.808Z,2.95
2022-11-29T08:31:35.246Z,4.90
2022-11-29T08:34:07.625Z,5.43
2022-11-29T08:36:36.621Z,5.22
2022-11-29T08:39:09.483Z,3.92
2022-11-29T08:41:39.176Z,4.90
2022-11-29T08:44:08.778Z,5.47
2022-11-29T08:46:55.056Z,6.40
2022-11-29T08:49:23.656Z,6.80
2022-11-29T08:51:53.502Z,6.53
2022-11-29T08:54:22.579Z,6.43
2022-11-29T08:59:41.638Z,6.25
2022-11-29T09:02:11.590Z,5.85
2022-11-29T09:04:41.174Z,6.68
2022-11-29T09:07:11.362Z,6.30
2022-11-29T09:09:41.451Z,6.50
2022-11-29T09:12:10.066Z,6.60
2022-11-29T09:14:38.735Z,7.25
2022-11-29T09:17:07.449Z,6.13
2022-11-29T09:19:36.272Z,6.47
2022-11-29T09:22:05.114Z,5.90
2022-11-29T09:24:35.425Z,6.72
2022-11-29T09:27:06.453Z,6.43
2022-11-29T09:29:36.076Z,6.28
2022-11-29T09:32:06.287Z,5.78
2022-11-29T09:34:35.025Z,7.20
2022-11-29T09:37:04.647Z,5.32
2022-11-29T09:39:33.352Z,6.63
2022-11-29T09:42:20.467Z,6.43
2022-11-29T09:45:03.496Z,6.13
2022-11-29T09:47:50.449Z,5.03
2022-11-29T09:50:25.796Z,6.43
2022-11-29T09:53:05.326Z,8.48
2022-11-29T09:56:21.007Z,7.45
2022-11-29T09:59:37.777Z,7.05
2022-11-29T10:03:00.777Z,8.90
2022-11-29T10:14:57.114Z,10.07
2022-11-29T10:17:35.087Z,7.20
2022-11-29T10:20:11.436Z,7.95
2022-11-29T10:25:22.500Z,8.43
2022-11-29T10:27:51.310Z,8.98
2022-11-29T10:58:24.837Z,7.80
2022-11-29T11:00:58.662Z,7.65
2022-11-29T11:03:36.142Z,6.18
2022-11-29T11:06:09.449Z,7.13
2022-11-29T11:08:42.723Z,8.93
2022-11-29T11:11:13.094Z,8.27
2022-11-29T11:13:44.525Z,7.75
2022-11-29T11:16:18.677Z,8.70
2022-11-29T11:18:49.428Z,8.23
2022-11-29T11:21:22.480Z,7.88
2022-11-29T11:23:57.689Z,6.55
2022-11-29T11:26:28.673Z,7.43
2022-11-29T11:29:02.219Z,7.90
2022-11-29T11:31:41.694Z,6.32
2022-11-29T11:34:34.741Z,8.15
2022-11-29T11:37:25.291Z,8.10
2022-11-29T11:39:58.001Z,8.23
2022-11-29T11:42:40.941Z,9.35
2022-11-29T11:48:55.957Z,10.38
2022-11-29T11:51:27.749Z,8.25
2022-11-29T15:09:39.520Z,6.65
2022-11-29T15:12:12.246Z,6.05
2022-11-29T15:14:48.310Z,6.63
2022-11-29T15:17:27.747Z,6.35
2022-11-29T15:20:29.426Z,8.13
2022-11-29T15:23:01.362Z,9.02
2022-11-29T15:25:50.047Z,7.97
2022-11-29T15:28:26.689Z,5.00
2022-11-29T15:31:08.036Z,8.13
2022-11-29T15:33:46.436Z,7.82
2022-11-29T15:36:22.307Z,8.40
2022-11-29T15:39:42.802Z,7.45
2022-11-29T15:42:19.217Z,7.78
2022-11-29T19:52:06.944Z,7.10
2022-11-29T19:54:38.527Z,6.85
2022-11-29T19:57:10.118Z,5.05
2022-11-29T19:59:53.791Z,5.38
2022-11-29T20:02:22.896Z,5.82
2022-11-29T20:10:45.362Z,5.60
2022-11-29T20:13:14.099Z,6.07
2022-11-29T20:15:42.930Z,5.38
2022-11-29T20:18:11.805Z,5.50
2022-11-29T20:20:41.808Z,5.32
2022-11-29T20:25:51.886Z,5.45
2022-11-29T20:40:41.799Z,3.95
2022-11-29T20:43:20.582Z,4.47
2022-11-29T20:45:49.863Z,4.80
2022-11-29T20:48:28.071Z,4.05
2022-11-29T20:51:02.911Z,4.13
2022-11-29T20:53:37.444Z,3.70
2022-11-29T20:56:14.174Z,5.00
2022-11-29T21:14:00.427Z,4.95
2022-11-29T21:16:33.212Z,3.75
2022-11-29T23:14:56.420Z,4.65
2022-11-29T23:17:26.038Z,4.80
2022-11-29T23:19:54.920Z,4.60
2022-11-29T23:22:23.818Z,4.45
2022-11-29T23:24:52.847Z,4.65
2022-11-29T23:27:21.674Z,4.32
2022-11-29T23:29:51.844Z,4.55
2022-11-29T23:32:20.721Z,5.00
2022-11-29T23:34:49.773Z,3.95
2022-11-29T23:37:18.694Z,4.38
2022-11-29T23:39:47.747Z,4.35
2022-11-29T23:42:17.206Z,4.60
2022-11-29T23:44:46.064Z,5.05
2022-11-29T23:47:16.772Z,4.45
2022-11-29T23:49:45.889Z,4.70
2022-11-29T23:52:14.750Z,4.10
2022-11-29T23:54:43.974Z,4.70
2022-11-29T23:57:13.353Z,4.20
2022-11-29T23:59:42.382Z,4.55
